sensor_id;sensor_type;location;lat;lon;timestamp;temperature;humidity
44643;DHT22;33930;-34.276;150.954;2022-11-15T10:58:19;15.90;99.90
44643;DHT22;33930;-34.276;150.954;2022-11-15T11:00:48;15.90;99.90
44643;DHT22;33930;-34.276;150.954;2022-11-15T11:03:36;15.80;99.90
44643;DHT22;33930;-34.276;150.954;2022-11-15T11:08:38;15.70;99.90
44643;DHT22;33930;-34.276;150.954;2022-11-15T11:11:07;15.60;99.90
44643;DHT22;33930;-34.276;150.954;2022-11-15T11:13:36;15.60;99.90
44643;DHT22;33930;-34.276;150.954;2022-11-15T11:16:36;15.50;99.90
44643;DHT22;33930;-34.276;150.954;2022-11-15T11:35:29;15.20;99.90
44643;DHT22;33930;-34.276;150.954;2022-11-15T11:46:52;15.00;99.90
44643;DHT22;33930;-34.276;150.954;2022-11-15T11:49:28;15.00;99.90
44643;DHT22;33930;-34.276;150.954;2022-11-15T11:52:07;15.00;99.90
44643;DHT22;33930;-34.276;150.954;2022-11-15T11:57:42;14.90;99.90
44643;DHT22;33930;-34.276;150.954;2022-11-15T12:00:22;14.90;99.90
44643;DHT22;33930;-34.276;150.954;2022-11-15T12:03:25;14.80;99.90
44643;DHT22;33930;-34.276;150.954;2022-11-15T12:05:57;14.80;99.90
44643;DHT22;33930;-34.276;150.954;2022-11-15T12:14:05;14.70;99.90
44643;DHT22;33930;-34.276;150.954;2022-11-15T12:16:36;14.70;99.90
44643;DHT22;33930;-34.276;150.954;2022-11-15T12:19:04;14.60;99.90
44643;DHT22;33930;-34.276;150.954;2022-11-15T12:21:46;14.50;99.90
44643;DHT22;33930;-34.276;150.954;2022-11-15T12:24:21;14.50;99.90
44643;DHT22;33930;-34.276;150.954;2022-11-15T12:26:55;14.50;99.90
44643;DHT22;33930;-34.276;150.954;2022-11-15T12:29:39;14.50;99.90
44643;DHT22;33930;-34.276;150.954;2022-11-15T12:32:40;14.40;99.90
44643;DHT22;33930;-34.276;150.954;2022-11-15T12:35:01;14.40;99.90
44643;DHT22;33930;-34.276;150.954;2022-11-15T12:37:48;14.30;99.90
44643;DHT22;33930;-34.276;150.954;2022-11-15T12:40:20;14.30;99.90
44643;DHT22;33930;-34.276;150.954;2022-11-15T12:45:45;14.10;99.90
44643;DHT22;33930;-34.276;150.954;2022-11-15T12:58:45;14.00;99.90
44643;DHT22;33930;-34.276;150.954;2022-11-15T13:14:59;13.80;99.90
44643;DHT22;33930;-34.276;150.954;2022-11-15T13:17:30;13.80;99.90
44643;DHT22;33930;-34.276;150.954;2022-11-15T13:20:01;13.70;99.90
44643;DHT22;33930;-34.276;150.954;2022-11-15T13:22:53;13.60;99.90
44643;DHT22;33930;-34.276;150.954;2022-11-15T13:28:19;13.50;99.90
44643;DHT22;33930;-34.276;150.954;2022-11-15T13:30:49;13.50;99.90
44643;DHT22;33930;-34.276;150.954;2022-11-15T13:33:24;13.50;99.90
44643;DHT22;33930;-34.276;150.954;2022-11-15T13:35:55;13.50;99.90
44643;DHT22;33930;-34.276;150.954;2022-11-15T13:38:30;13.50;99.90
44643;DHT22;33930;-34.276;150.954;2022-11-15T13:40:59;13.50;99.90
44643;DHT22;33930;-34.276;150.954;2022-11-15T13:43:31;13.50;99.90
44643;DHT22;33930;-34.276;150.954;2022-11-15T13:46:05;13.40;99.90
44643;DHT22;33930;-34.276;150.954;2022-11-15T13:48:33;13.30;99.90
44643;DHT22;33930;-34.276;150.954;2022-11-15T13:51:04;13.30;99.90
44643;DHT22;33930;-34.276;150.954;2022-11-15T13:53:33;13.30;99.90
44643;DHT22;33930;-34.276;150.954;2022-11-15T13:56:03;13.30;99.90
44643;DHT22;33930;-34.276;150.954;2022-11-15T13:58:30;13.30;99.90
44643;DHT22;33930;-34.276;150.954;2022-11-15T14:01:04;13.20;99.90
44643;DHT22;33930;-34.276;150.954;2022-11-15T14:03:41;13.10;99.90
44643;DHT22;33930;-34.276;150.954;2022-11-15T14:06:18;13.20;99.90
44643;DHT22;33930;-34.276;150.954;2022-11-15T14:09:38;13.20;99.90
44643;DHT22;33930;-34.276;150.954;2022-11-15T14:12:29;13.10;99.90
44643;DHT22;33930;-34.276;150.954;2022-11-15T14:14:58;13.10;99.90
44643;DHT22;33930;-34.276;150.954;2022-11-15T14:19:58;13.00;99.90
44643;DHT22;33930;-34.276;150.954;2022-11-15T14:22:30;13.00;99.90
44643;DHT22;33930;-34.276;150.954;2022-11-15T14:25:22;12.90;99.90
44643;DHT22;33930;-34.276;150.954;2022-11-15T14:28:28;12.90;99.90
44643;DHT22;33930;-34.276;150.954;2022-11-15T14:30:59;12.80;99.90
44643;DHT22;33930;-34.276;150.954;2022-11-15T14:33:34;12.70;99.90
44643;DHT22;33930;-34.276;150.954;2022-11-15T14:36:21;12.60;99.90
44643;DHT22;33930;-34.276;150.954;2022-11-15T14:38:48;12.60;99.90
44643;DHT22;33930;-34.276;150.954;2022-11-15T14:41:24;12.60;99.90
44643;DHT22;33930;-34.276;150.954;2022-11-15T14:43:53;12.60;99.90
44643;DHT22;33930;-34.276;150.954;2022-11-15T14:46:20;12.50;99.90
44643;DHT22;33930;-34.276;150.954;2022-11-15T14:48:47;12.50;99.90
44643;DHT22;33930;-34.276;150.954;2022-11-15T14:51:17;12.40;99.90
44643;DHT22;33930;-34.276;150.954;2022-11-15T14:53:45;12.40;99.90
44643;DHT22;33930;-34.276;150.954;2022-11-15T14:56:13;12.40;99.90
44643;DHT22;33930;-34.276;150.954;2022-11-15T14:58:41;12.40;99.90
44643;DHT22;33930;-34.276;150.954;2022-11-15T15:01:20;12.40;99.90
44643;DHT22;33930;-34.276;150.954;2022-11-15T15:03:47;12.50;99.90
44643;DHT22;33930;-34.276;150.954;2022-11-15T15:06:15;12.40;99.90
44643;DHT22;33930;-34.276;150.954;2022-11-15T15:08:42;12.40;99.90
44643;DHT22;33930;-34.276;150.954;2022-11-15T15:11:24;12.40;99.90
44643;DHT22;33930;-34.276;150.954;2022-11-15T15:13:53;12.40;99.90
44643;DHT22;33930;-34.276;150.954;2022-11-15T15:16:24;12.40;99.90
44643;DHT22;33930;-34.276;150.954;2022-11-15T15:18:51;12.40;99.90
44643;DHT22;33930;-34.276;150.954;2022-11-15T15:21:28;12.40;99.90
44643;DHT22;33930;-34.276;150.954;2022-11-15T15:23:57;12.40;99.90
44643;DHT22;33930;-34.276;150.954;2022-11-15T15:26:25;12.40;99.90
44643;DHT22;33930;-34.276;150.954;2022-11-15T15:28:52;12.40;99.90
44643;DHT22;33930;-34.276;150.954;2022-11-15T15:31:19;12.40;99.90
44643;DHT22;33930;-34.276;150.954;2022-11-15T15:33:47;12.40;99.90
44643;DHT22;33930;-34.276;150.954;2022-11-15T15:36:18;12.40;99.90
44643;DHT22;33930;-34.276;150.954;2022-11-15T15:38:45;12.40;99.90
44643;DHT22;33930;-34.276;150.954;2022-11-15T15:41:14;12.40;99.90
44643;DHT22;33930;-34.276;150.954;2022-11-15T15:43:42;12.40;99.90
44643;DHT22;33930;-34.276;150.954;2022-11-15T15:46:15;12.30;99.90
44643;DHT22;33930;-34.276;150.954;2022-11-15T15:48:43;12.30;99.90
44643;DHT22;33930;-34.276;150.954;2022-11-15T15:51:11;12.40;99.90
44643;DHT22;33930;-34.276;150.954;2022-11-15T15:53:39;12.40;99.90
44643;DHT22;33930;-34.276;150.954;2022-11-15T15:56:06;12.40;99.90
44643;DHT22;33930;-34.276;150.954;2022-11-15T15:58:36;12.30;99.90
44643;DHT22;33930;-34.276;150.954;2022-11-15T16:01:04;12.30;99.90
44643;DHT22;33930;-34.276;150.954;2022-11-15T16:03:31;12.20;99.90
44643;DHT22;33930;-34.276;150.954;2022-11-15T16:05:58;12.20;99.90
44643;DHT22;33930;-34.276;150.954;2022-11-15T16:08:26;12.10;99.90
44643;DHT22;33930;-34.276;150.954;2022-11-15T16:10:54;12.00;99.90
44643;DHT22;33930;-34.276;150.954;2022-11-15T16:13:21;12.00;99.90
44643;DHT22;33930;-34.276;150.954;2022-11-15T16:15:52;11.90;99.90
44643;DHT22;33930;-34.276;150.954;2022-11-15T16:18:20;11.90;99.90
44643;DHT22;33930;-34.276;150.954;2022-11-15T16:20:49;11.90;99.90
44643;DHT22;33930;-34.276;150.954;2022-11-15T16:23:19;11.80;99.90
44643;DHT22;33930;-34.276;150.954;2022-11-15T16:25:52;11.70;99.90
44643;DHT22;33930;-34.276;150.954;2022-11-15T16:28:28;11.70;99.90
44643;DHT22;33930;-34.276;150.954;2022-11-15T16:31:07;11.70;99.90
44643;DHT22;33930;-34.276;150.954;2022-11-15T16:33:35;11.70;99.90
44643;DHT22;33930;-34.276;150.954;2022-11-15T16:36:04;11.60;99.90
44643;DHT22;33930;-34.276;150.954;2022-11-15T16:38:32;11.60;99.90
44643;DHT22;33930;-34.276;150.954;2022-11-15T16:40:59;11.50;99.90
44643;DHT22;33930;-34.276;150.954;2022-11-15T16:43:27;11.50;99.90
44643;DHT22;33930;-34.276;150.954;2022-11-15T16:45:54;11.50;99.90
44643;DHT22;33930;-34.276;150.954;2022-11-15T16:48:26;11.50;99.90
44643;DHT22;33930;-34.276;150.954;2022-11-15T16:51:00;11.50;99.90
44643;DHT22;33930;-34.276;150.954;2022-11-15T16:53:30;11.50;99.90
44643;DHT22;33930;-34.276;150.954;2022-11-15T16:55:57;11.50;99.90
44643;DHT22;33930;-34.276;150.954;2022-11-15T16:58:24;11.50;99.90
44643;DHT22;33930;-34.276;150.954;2022-11-15T17:00:53;11.50;99.90
44643;DHT22;33930;-34.276;150.954;2022-11-15T17:03:21;11.50;99.90
44643;DHT22;33930;-34.276;150.954;2022-11-15T17:05:49;11.50;99.90
44643;DHT22;33930;-34.276;150.954;2022-11-15T17:08:17;11.50;99.90
44643;DHT22;33930;-34.276;150.954;2022-11-15T17:10:47;11.50;99.90
44643;DHT22;33930;-34.276;150.954;2022-11-15T17:13:14;11.50;99.90
44643;DHT22;33930;-34.276;150.954;2022-11-15T17:15:43;11.50;99.90
44643;DHT22;33930;-34.276;150.954;2022-11-15T17:18:11;11.50;99.90
44643;DHT22;33930;-34.276;150.954;2022-11-15T17:20:40;11.50;99.90
44643;DHT22;33930;-34.276;150.954;2022-11-15T17:23:13;11.50;99.90
44643;DHT22;33930;-34.276;150.954;2022-11-15T17:25:40;11.40;99.90
44643;DHT22;33930;-34.276;150.954;2022-11-15T17:28:08;11.50;99.90
44643;DHT22;33930;-34.276;150.954;2022-11-15T17:30:36;11.50;99.90
44643;DHT22;33930;-34.276;150.954;2022-11-15T17:33:03;11.40;99.90
44643;DHT22;33930;-34.276;150.954;2022-11-15T17:35:30;11.40;99.90
44643;DHT22;33930;-34.276;150.954;2022-11-15T17:37:58;11.40;99.90
44643;DHT22;33930;-34.276;150.954;2022-11-15T17:40:25;11.30;99.90
44643;DHT22;33930;-34.276;150.954;2022-11-15T17:42:52;11.30;99.90
44643;DHT22;33930;-34.276;150.954;2022-11-15T17:45:20;11.30;99.90
44643;DHT22;33930;-34.276;150.954;2022-11-15T17:47:48;11.30;99.90
44643;DHT22;33930;-34.276;150.954;2022-11-15T17:50:15;11.30;99.90
44643;DHT22;33930;-34.276;150.954;2022-11-15T17:52:43;11.30;99.90
44643;DHT22;33930;-34.276;150.954;2022-11-15T17:55:10;11.20;99.90
44643;DHT22;33930;-34.276;150.954;2022-11-15T17:57:38;11.20;99.90
44643;DHT22;33930;-34.276;150.954;2022-11-15T18:00:05;11.20;99.90
44643;DHT22;33930;-34.276;150.954;2022-11-15T18:02:33;11.10;99.90
44643;DHT22;33930;-34.276;150.954;2022-11-15T18:05:00;11.10;99.90
44643;DHT22;33930;-34.276;150.954;2022-11-15T18:07:28;11.10;99.90
44643;DHT22;33930;-34.276;150.954;2022-11-15T18:09:56;11.10;99.90
44643;DHT22;33930;-34.276;150.954;2022-11-15T18:12:23;11.10;99.90
44643;DHT22;33930;-34.276;150.954;2022-11-15T18:14:50;11.10;99.90
44643;DHT22;33930;-34.276;150.954;2022-11-15T18:17:17;11.00;99.90
44643;DHT22;33930;-34.276;150.954;2022-11-15T18:19:45;11.00;99.90
44643;DHT22;33930;-34.276;150.954;2022-11-15T18:22:14;11.00;99.90
44643;DHT22;33930;-34.276;150.954;2022-11-15T18:24:41;11.00;99.90
44643;DHT22;33930;-34.276;150.954;2022-11-15T18:27:10;11.00;99.90
44643;DHT22;33930;-34.276;150.954;2022-11-15T18:29:37;11.00;99.90
44643;DHT22;33930;-34.276;150.954;2022-11-15T18:32:05;11.00;99.90
44643;DHT22;33930;-34.276;150.954;2022-11-15T18:34:37;11.00;99.90
44643;DHT22;33930;-34.276;150.954;2022-11-15T18:37:05;11.00;99.90
44643;DHT22;33930;-34.276;150.954;2022-11-15T18:39:33;11.00;99.90
44643;DHT22;33930;-34.276;150.954;2022-11-15T18:42:00;11.00;99.90
44643;DHT22;33930;-34.276;150.954;2022-11-15T18:44:28;11.10;99.90
44643;DHT22;33930;-34.276;150.954;2022-11-15T18:46:56;11.00;99.90
44643;DHT22;33930;-34.276;150.954;2022-11-15T18:49:23;11.00;99.90
44643;DHT22;33930;-34.276;150.954;2022-11-15T18:51:51;11.00;99.90
44643;DHT22;33930;-34.276;150.954;2022-11-15T18:54:18;11.00;99.90
44643;DHT22;33930;-34.276;150.954;2022-11-15T18:56:45;11.10;99.90
44643;DHT22;33930;-34.276;150.954;2022-11-15T18:59:13;11.00;99.90
44643;DHT22;33930;-34.276;150.954;2022-11-15T19:01:43;11.00;99.90
44643;DHT22;33930;-34.276;150.954;2022-11-15T19:04:16;11.10;99.90
44643;DHT22;33930;-34.276;150.954;2022-11-15T19:06:45;11.20;99.90
44643;DHT22;33930;-34.276;150.954;2022-11-15T19:09:15;11.20;99.90
44643;DHT22;33930;-34.276;150.954;2022-11-15T19:11:44;11.30;99.90
44643;DHT22;33930;-34.276;150.954;2022-11-15T19:14:14;11.40;99.90
44643;DHT22;33930;-34.276;150.954;2022-11-15T19:16:44;11.60;99.90
44643;DHT22;33930;-34.276;150.954;2022-11-15T19:19:17;11.70;99.90
44643;DHT22;33930;-34.276;150.954;2022-11-15T19:21:45;11.80;99.90
44643;DHT22;33930;-34.276;150.954;2022-11-15T19:24:12;12.00;99.90
44643;DHT22;33930;-34.276;150.954;2022-11-15T19:26:40;12.20;99.90
44643;DHT22;33930;-34.276;150.954;2022-11-15T19:29:09;12.40;99.90
44643;DHT22;33930;-34.276;150.954;2022-11-15T19:31:37;12.50;99.90
44643;DHT22;33930;-34.276;150.954;2022-11-15T19:34:05;12.50;99.90
44643;DHT22;33930;-34.276;150.954;2022-11-15T19:36:41;12.70;99.90
44643;DHT22;33930;-34.276;150.954;2022-11-15T19:39:13;12.80;99.90
44643;DHT22;33930;-34.276;150.954;2022-11-15T19:41:42;12.90;99.90
44643;DHT22;33930;-34.276;150.954;2022-11-15T19:44:11;13.00;99.90
44643;DHT22;33930;-34.276;150.954;2022-11-15T19:46:39;13.20;99.90
44643;DHT22;33930;-34.276;150.954;2022-11-15T19:49:07;13.30;99.90
44643;DHT22;33930;-34.276;150.954;2022-11-15T19:51:36;13.50;99.90
44643;DHT22;33930;-34.276;150.954;2022-11-15T19:54:04;13.60;99.90
44643;DHT22;33930;-34.276;150.954;2022-11-15T19:56:34;13.90;99.90
44643;DHT22;33930;-34.276;150.954;2022-11-15T19:59:02;14.40;99.90
44643;DHT22;33930;-34.276;150.954;2022-11-15T20:01:32;15.10;98.30
44643;DHT22;33930;-34.276;150.954;2022-11-15T20:04:04;15.90;98.30
44643;DHT22;33930;-34.276;150.954;2022-11-15T20:06:35;16.20;98.20
44643;DHT22;33930;-34.276;150.954;2022-11-15T20:09:03;17.00;97.90
44643;DHT22;33930;-34.276;150.954;2022-11-15T20:11:30;17.50;96.40
44643;DHT22;33930;-34.276;150.954;2022-11-15T20:14:00;17.70;95.80
44643;DHT22;33930;-34.276;150.954;2022-11-15T20:16:27;17.70;95.40
44643;DHT22;33930;-34.276;150.954;2022-11-15T20:18:55;17.60;93.90
44643;DHT22;33930;-34.276;150.954;2022-11-15T20:21:23;17.70;95.70
44643;DHT22;33930;-34.276;150.954;2022-11-15T20:23:50;18.00;94.90
44643;DHT22;33930;-34.276;150.954;2022-11-15T20:26:19;18.70;94.50
44643;DHT22;33930;-34.276;150.954;2022-11-15T20:28:47;19.30;93.00
44643;DHT22;33930;-34.276;150.954;2022-11-15T20:31:15;19.80;93.10
44643;DHT22;33930;-34.276;150.954;2022-11-15T20:33:43;20.10;92.00
44643;DHT22;33930;-34.276;150.954;2022-11-15T20:36:14;20.10;92.10
44643;DHT22;33930;-34.276;150.954;2022-11-15T20:38:42;19.70;92.10
44643;DHT22;33930;-34.276;150.954;2022-11-15T20:41:11;19.50;92.70
44643;DHT22;33930;-34.276;150.954;2022-11-15T20:43:39;19.80;93.00
44643;DHT22;33930;-34.276;150.954;2022-11-15T20:46:12;19.80;91.30
44643;DHT22;33930;-34.276;150.954;2022-11-15T20:48:40;19.50;92.70
44643;DHT22;33930;-34.276;150.954;2022-11-15T20:51:15;18.50;91.10
44643;DHT22;33930;-34.276;150.954;2022-11-15T20:53:44;17.70;92.70
44643;DHT22;33930;-34.276;150.954;2022-11-15T20:56:17;17.40;95.10
44643;DHT22;33930;-34.276;150.954;2022-11-15T20:58:45;17.20;94.60
44643;DHT22;33930;-34.276;150.954;2022-11-15T21:01:15;17.20;94.00
44643;DHT22;33930;-34.276;150.954;2022-11-15T21:03:43;17.70;95.10
44643;DHT22;33930;-34.276;150.954;2022-11-15T21:06:11;18.60;93.10
44643;DHT22;33930;-34.276;150.954;2022-11-15T21:08:38;19.60;93.00
44643;DHT22;33930;-34.276;150.954;2022-11-15T21:11:24;19.70;93.00
44643;DHT22;33930;-34.276;150.954;2022-11-15T21:14:09;19.30;91.10
44643;DHT22;33930;-34.276;150.954;2022-11-15T21:16:37;19.10;91.80
44643;DHT22;33930;-34.276;150.954;2022-11-15T21:19:05;19.30;90.80
44643;DHT22;33930;-34.276;150.954;2022-11-15T21:21:33;20.60;91.60
44643;DHT22;33930;-34.276;150.954;2022-11-15T21:24:05;22.30;91.40
44643;DHT22;33930;-34.276;150.954;2022-11-15T21:26:34;23.90;88.80
44643;DHT22;33930;-34.276;150.954;2022-11-15T21:29:02;24.90;86.10
44643;DHT22;33930;-34.276;150.954;2022-11-15T21:31:29;25.50;80.10
44643;DHT22;33930;-34.276;150.954;2022-11-15T21:34:00;26.30;81.30
44643;DHT22;33930;-34.276;150.954;2022-11-15T21:36:28;26.80;77.50
44643;DHT22;33930;-34.276;150.954;2022-11-15T21:38:56;26.90;75.50
44643;DHT22;33930;-34.276;150.954;2022-11-15T21:41:24;27.30;75.30
44643;DHT22;33930;-34.276;150.954;2022-11-15T21:43:51;27.20;73.80
44643;DHT22;33930;-34.276;150.954;2022-11-15T21:46:18;27.50;75.20
44643;DHT22;33930;-34.276;150.954;2022-11-15T21:48:49;27.40;69.60
44643;DHT22;33930;-34.276;150.954;2022-11-15T21:51:16;27.90;73.10
44643;DHT22;33930;-34.276;150.954;2022-11-15T21:53:43;28.80;72.60
44643;DHT22;33930;-34.276;150.954;2022-11-15T21:56:10;29.50;68.80
44643;DHT22;33930;-34.276;150.954;2022-11-15T21:58:38;30.20;71.10
44643;DHT22;33930;-34.276;150.954;2022-11-15T22:01:06;30.70;67.70
44643;DHT22;33930;-34.276;150.954;2022-11-15T22:03:52;31.30;67.40
44643;DHT22;33930;-34.276;150.954;2022-11-15T22:06:19;31.80;66.90
44643;DHT22;33930;-34.276;150.954;2022-11-15T22:08:46;32.20;66.00
44643;DHT22;33930;-34.276;150.954;2022-11-15T22:11:14;32.20;64.60
44643;DHT22;33930;-34.276;150.954;2022-11-15T22:13:42;32.40;64.50
44643;DHT22;33930;-34.276;150.954;2022-11-15T22:16:09;32.80;63.30
44643;DHT22;33930;-34.276;150.954;2022-11-15T22:18:37;32.80;63.70
44643;DHT22;33930;-34.276;150.954;2022-11-15T22:21:07;32.20;62.60
44643;DHT22;33930;-34.276;150.954;2022-11-15T22:23:35;32.10;63.00
44643;DHT22;33930;-34.276;150.954;2022-11-15T22:26:04;32.30;63.60
44643;DHT22;33930;-34.276;150.954;2022-11-15T22:28:31;32.00;59.70
44643;DHT22;33930;-34.276;150.954;2022-11-15T22:30:59;31.50;59.90
44643;DHT22;33930;-34.276;150.954;2022-11-15T22:33:28;31.90;62.60
44643;DHT22;33930;-34.276;150.954;2022-11-15T22:35:56;31.80;58.70
44643;DHT22;33930;-34.276;150.954;2022-11-15T22:38:24;31.70;60.60
44643;DHT22;33930;-34.276;150.954;2022-11-15T22:40:52;31.50;61.10
44643;DHT22;33930;-34.276;150.954;2022-11-15T22:43:21;31.60;62.80
44643;DHT22;33930;-34.276;150.954;2022-11-15T22:45:52;32.10;60.00
44643;DHT22;33930;-34.276;150.954;2022-11-15T22:48:22;32.70;62.50
44643;DHT22;33930;-34.276;150.954;2022-11-15T22:50:49;32.80;59.70
44643;DHT22;33930;-34.276;150.954;2022-11-15T22:53:17;31.10;58.00
44643;DHT22;33930;-34.276;150.954;2022-11-15T22:55:54;29.30;64.90
44643;DHT22;33930;-34.276;150.954;2022-11-15T22:58:24;27.60;69.30
44643;DHT22;33930;-34.276;150.954;2022-11-15T23:00:54;27.40;69.60
44643;DHT22;33930;-34.276;150.954;2022-11-15T23:03:23;26.20;68.10
44643;DHT22;33930;-34.276;150.954;2022-11-15T23:05:50;24.50;73.20
44643;DHT22;33930;-34.276;150.954;2022-11-15T23:08:18;24.10;74.00
44643;DHT22;33930;-34.276;150.954;2022-11-15T23:10:46;25.30;74.20
44643;DHT22;33930;-34.276;150.954;2022-11-15T23:13:50;25.40;71.60
44643;DHT22;33930;-34.276;150.954;2022-11-15T23:16:18;24.60;73.80
44643;DHT22;33930;-34.276;150.954;2022-11-15T23:18:50;23.80;74.30
44643;DHT22;33930;-34.276;150.954;2022-11-15T23:21:20;23.10;76.70
44643;DHT22;33930;-34.276;150.954;2022-11-15T23:24:08;23.30;78.40
44643;DHT22;33930;-34.276;150.954;2022-11-15T23:26:36;23.40;77.00
44643;DHT22;33930;-34.276;150.954;2022-11-15T23:29:05;23.00;78.10
44643;DHT22;33930;-34.276;150.954;2022-11-15T23:31:32;23.10;77.70
44643;DHT22;33930;-34.276;150.954;2022-11-15T23:34:17;22.30;75.80
44643;DHT22;33930;-34.276;150.954;2022-11-15T23:36:45;21.60;81.10
44643;DHT22;33930;-34.276;150.954;2022-11-15T23:39:12;22.20;79.90
44643;DHT22;33930;-34.276;150.954;2022-11-15T23:41:40;23.10;76.20
44643;DHT22;33930;-34.276;150.954;2022-11-15T23:44:07;23.50;77.20
44643;DHT22;33930;-34.276;150.954;2022-11-15T23:46:35;24.00;81.00
44643;DHT22;33930;-34.276;150.954;2022-11-15T23:49:02;24.50;78.40
44643;DHT22;33930;-34.276;150.954;2022-11-15T23:51:30;24.90;75.00
44643;DHT22;33930;-34.276;150.954;2022-11-15T23:53:57;24.10;78.40
44643;DHT22;33930;-34.276;150.954;2022-11-15T23:56:25;23.50;77.30
44643;DHT22;33930;-34.276;150.954;2022-11-15T23:58:52;23.10;80.30
